Radford, Virginia
Current Conditions -  °F | °C
As of 8:55 AM on Monday 24 Nov 2014 (Local Time) from KPSK Reporting Station
Broken Clouds Broken Clouds  
Wind Chill: 56°   Ceiling: 1900
Heat Index: 56°   Visibility: 10mi
Dew Point: 53°   Wind: 9mph
Humidity: 89%   Direction: 200°SSW
Pressure: 29.73"   Gusts: NA
Location:  37.12°N, 80.59°W
Report Text: KPSK 241355Z AUTO 20008KT 10SM BKN019 14/12 A2973 RMK AO2 T01350117
Loading
Personal Weather Stations






























Interactive Weather Map New forecast layout! Learn more

10-Day Weather Forecast

Advertisements
Track Severe Weather on mobile